sensor_id;sensor_type;location;lat;lon;timestamp;P1;durP1;ratioP1;P2;durP2;ratioP2
19221;SDS011;9745;50.828;4.378;2024-03-08T00:01:39;22.90;;;13.37;;
19221;SDS011;9745;50.828;4.378;2024-03-08T00:04:05;23.43;;;13.00;;
19221;SDS011;9745;50.828;4.378;2024-03-08T00:06:32;25.47;;;13.13;;
19221;SDS011;9745;50.828;4.378;2024-03-08T00:08:58;28.40;;;12.50;;
19221;SDS011;9745;50.828;4.378;2024-03-08T00:11:24;27.03;;;14.23;;
19221;SDS011;9745;50.828;4.378;2024-03-08T00:13:51;23.60;;;13.50;;
19221;SDS011;9745;50.828;4.378;2024-03-08T00:16:18;27.93;;;14.07;;
19221;SDS011;9745;50.828;4.378;2024-03-08T00:18:48;23.47;;;12.73;;
19221;SDS011;9745;50.828;4.378;2024-03-08T00:21:14;22.07;;;13.17;;
19221;SDS011;9745;50.828;4.378;2024-03-08T00:23:40;24.50;;;13.63;;
19221;SDS011;9745;50.828;4.378;2024-03-08T00:26:06;21.37;;;12.40;;
19221;SDS011;9745;50.828;4.378;2024-03-08T00:28:32;27.03;;;13.83;;
19221;SDS011;9745;50.828;4.378;2024-03-08T00:30:59;27.77;;;14.00;;
19221;SDS011;9745;50.828;4.378;2024-03-08T00:33:25;27.13;;;13.10;;
19221;SDS011;9745;50.828;4.378;2024-03-08T00:35:52;25.37;;;13.73;;
19221;SDS011;9745;50.828;4.378;2024-03-08T00:38:18;26.30;;;14.00;;
19221;SDS011;9745;50.828;4.378;2024-03-08T00:40:45;27.80;;;13.63;;
19221;SDS011;9745;50.828;4.378;2024-03-08T00:43:11;26.27;;;13.33;;
19221;SDS011;9745;50.828;4.378;2024-03-08T00:45:37;26.17;;;13.57;;
19221;SDS011;9745;50.828;4.378;2024-03-08T00:48:03;27.00;;;13.80;;
19221;SDS011;9745;50.828;4.378;2024-03-08T00:50:30;27.70;;;13.67;;
19221;SDS011;9745;50.828;4.378;2024-03-08T00:52:56;26.03;;;14.17;;
19221;SDS011;9745;50.828;4.378;2024-03-08T00:55:22;26.60;;;13.87;;
19221;SDS011;9745;50.828;4.378;2024-03-08T00:57:48;22.07;;;13.20;;
19221;SDS011;9745;50.828;4.378;2024-03-08T01:00:15;27.40;;;14.10;;
19221;SDS011;9745;50.828;4.378;2024-03-08T01:02:42;25.57;;;13.83;;
19221;SDS011;9745;50.828;4.378;2024-03-08T01:05:08;28.87;;;13.80;;
19221;SDS011;9745;50.828;4.378;2024-03-08T01:07:34;24.50;;;14.10;;
19221;SDS011;9745;50.828;4.378;2024-03-08T01:10:01;26.60;;;13.67;;
19221;SDS011;9745;50.828;4.378;2024-03-08T01:12:27;27.63;;;13.87;;
19221;SDS011;9745;50.828;4.378;2024-03-08T01:14:53;25.53;;;13.80;;
19221;SDS011;9745;50.828;4.378;2024-03-08T01:17:19;24.57;;;14.00;;
19221;SDS011;9745;50.828;4.378;2024-03-08T01:19:45;26.93;;;14.33;;
19221;SDS011;9745;50.828;4.378;2024-03-08T01:22:11;28.23;;;14.30;;
19221;SDS011;9745;50.828;4.378;2024-03-08T01:24:37;29.47;;;15.07;;
19221;SDS011;9745;50.828;4.378;2024-03-08T01:27:03;24.47;;;14.57;;
19221;SDS011;9745;50.828;4.378;2024-03-08T01:29:29;27.90;;;15.23;;
19221;SDS011;9745;50.828;4.378;2024-03-08T01:31:55;28.60;;;14.60;;
19221;SDS011;9745;50.828;4.378;2024-03-08T01:34:22;24.33;;;14.27;;
19221;SDS011;9745;50.828;4.378;2024-03-08T01:36:48;25.50;;;14.03;;
19221;SDS011;9745;50.828;4.378;2024-03-08T01:39:14;26.13;;;13.53;;
19221;SDS011;9745;50.828;4.378;2024-03-08T01:41:40;31.30;;;15.07;;
19221;SDS011;9745;50.828;4.378;2024-03-08T01:44:07;31.13;;;14.77;;
19221;SDS011;9745;50.828;4.378;2024-03-08T01:46:34;30.97;;;15.80;;
19221;SDS011;9745;50.828;4.378;2024-03-08T01:49:00;32.00;;;15.73;;
19221;SDS011;9745;50.828;4.378;2024-03-08T01:51:27;29.53;;;15.03;;
19221;SDS011;9745;50.828;4.378;2024-03-08T01:53:53;26.00;;;15.40;;
19221;SDS011;9745;50.828;4.378;2024-03-08T01:56:22;25.47;;;15.43;;
19221;SDS011;9745;50.828;4.378;2024-03-08T01:58:49;28.17;;;15.37;;
19221;SDS011;9745;50.828;4.378;2024-03-08T02:01:15;28.07;;;14.90;;
19221;SDS011;9745;50.828;4.378;2024-03-08T02:03:41;26.47;;;15.07;;
19221;SDS011;9745;50.828;4.378;2024-03-08T02:06:09;29.07;;;15.67;;
19221;SDS011;9745;50.828;4.378;2024-03-08T02:08:35;28.87;;;15.00;;
19221;SDS011;9745;50.828;4.378;2024-03-08T02:11:01;28.73;;;15.90;;
19221;SDS011;9745;50.828;4.378;2024-03-08T02:13:27;26.57;;;14.57;;
19221;SDS011;9745;50.828;4.378;2024-03-08T02:15:54;25.73;;;15.97;;
19221;SDS011;9745;50.828;4.378;2024-03-08T02:18:20;25.80;;;16.03;;
19221;SDS011;9745;50.828;4.378;2024-03-08T02:20:47;25.20;;;14.27;;
19221;SDS011;9745;50.828;4.378;2024-03-08T02:23:14;27.90;;;15.83;;
19221;SDS011;9745;50.828;4.378;2024-03-08T02:25:40;29.90;;;16.97;;
19221;SDS011;9745;50.828;4.378;2024-03-08T02:28:12;29.73;;;16.03;;
19221;SDS011;9745;50.828;4.378;2024-03-08T02:30:38;28.90;;;16.00;;
19221;SDS011;9745;50.828;4.378;2024-03-08T02:33:05;30.97;;;16.63;;
19221;SDS011;9745;50.828;4.378;2024-03-08T02:35:31;27.50;;;15.93;;
19221;SDS011;9745;50.828;4.378;2024-03-08T02:37:57;27.30;;;17.20;;
19221;SDS011;9745;50.828;4.378;2024-03-08T02:40:23;28.70;;;16.37;;
19221;SDS011;9745;50.828;4.378;2024-03-08T02:42:49;28.37;;;16.47;;
19221;SDS011;9745;50.828;4.378;2024-03-08T02:45:15;27.67;;;16.50;;
19221;SDS011;9745;50.828;4.378;2024-03-08T02:47:41;30.00;;;16.50;;
19221;SDS011;9745;50.828;4.378;2024-03-08T02:50:07;26.47;;;16.30;;
19221;SDS011;9745;50.828;4.378;2024-03-08T02:52:34;29.60;;;17.83;;
19221;SDS011;9745;50.828;4.378;2024-03-08T02:55:03;29.43;;;17.23;;
19221;SDS011;9745;50.828;4.378;2024-03-08T02:57:31;30.80;;;16.83;;
19221;SDS011;9745;50.828;4.378;2024-03-08T02:59:57;29.80;;;17.40;;
19221;SDS011;9745;50.828;4.378;2024-03-08T03:02:24;29.40;;;17.20;;
19221;SDS011;9745;50.828;4.378;2024-03-08T03:04:51;30.40;;;17.10;;
19221;SDS011;9745;50.828;4.378;2024-03-08T03:07:17;29.00;;;17.37;;
19221;SDS011;9745;50.828;4.378;2024-03-08T03:09:44;27.57;;;16.60;;
19221;SDS011;9745;50.828;4.378;2024-03-08T03:12:10;27.40;;;17.40;;
19221;SDS011;9745;50.828;4.378;2024-03-08T03:14:36;34.23;;;17.63;;
19221;SDS011;9745;50.828;4.378;2024-03-08T03:17:03;29.53;;;16.37;;
19221;SDS011;9745;50.828;4.378;2024-03-08T03:19:30;27.10;;;17.07;;
19221;SDS011;9745;50.828;4.378;2024-03-08T03:21:56;28.07;;;18.07;;
19221;SDS011;9745;50.828;4.378;2024-03-08T03:24:22;27.30;;;17.20;;
19221;SDS011;9745;50.828;4.378;2024-03-08T03:26:48;29.87;;;17.40;;
19221;SDS011;9745;50.828;4.378;2024-03-08T03:29:15;28.23;;;17.87;;
19221;SDS011;9745;50.828;4.378;2024-03-08T03:31:42;28.77;;;17.43;;
19221;SDS011;9745;50.828;4.378;2024-03-08T03:34:11;34.03;;;19.07;;
19221;SDS011;9745;50.828;4.378;2024-03-08T03:36:37;31.07;;;17.50;;
19221;SDS011;9745;50.828;4.378;2024-03-08T03:39:07;31.63;;;18.80;;
19221;SDS011;9745;50.828;4.378;2024-03-08T03:41:40;34.23;;;18.07;;
19221;SDS011;9745;50.828;4.378;2024-03-08T03:44:06;30.97;;;18.40;;
19221;SDS011;9745;50.828;4.378;2024-03-08T03:46:33;32.60;;;18.70;;
19221;SDS011;9745;50.828;4.378;2024-03-08T03:48:59;30.90;;;19.10;;
19221;SDS011;9745;50.828;4.378;2024-03-08T03:51:25;30.87;;;17.70;;
19221;SDS011;9745;50.828;4.378;2024-03-08T03:53:51;29.37;;;18.97;;
19221;SDS011;9745;50.828;4.378;2024-03-08T03:56:18;29.57;;;18.27;;
19221;SDS011;9745;50.828;4.378;2024-03-08T03:58:44;34.37;;;19.50;;
19221;SDS011;9745;50.828;4.378;2024-03-08T04:01:10;33.53;;;18.13;;
19221;SDS011;9745;50.828;4.378;2024-03-08T04:03:36;32.33;;;18.90;;
19221;SDS011;9745;50.828;4.378;2024-03-08T04:06:03;29.10;;;17.70;;
19221;SDS011;9745;50.828;4.378;2024-03-08T04:08:29;34.80;;;18.77;;
19221;SDS011;9745;50.828;4.378;2024-03-08T04:10:56;29.47;;;18.30;;
19221;SDS011;9745;50.828;4.378;2024-03-08T04:13:23;30.63;;;18.57;;
19221;SDS011;9745;50.828;4.378;2024-03-08T04:15:49;30.23;;;18.77;;
19221;SDS011;9745;50.828;4.378;2024-03-08T04:18:15;34.13;;;18.57;;
19221;SDS011;9745;50.828;4.378;2024-03-08T04:20:41;27.03;;;18.03;;
19221;SDS011;9745;50.828;4.378;2024-03-08T04:23:07;28.10;;;18.53;;
19221;SDS011;9745;50.828;4.378;2024-03-08T04:25:33;29.47;;;19.10;;
19221;SDS011;9745;50.828;4.378;2024-03-08T04:27:59;31.27;;;19.57;;
19221;SDS011;9745;50.828;4.378;2024-03-08T04:30:25;29.40;;;18.90;;
19221;SDS011;9745;50.828;4.378;2024-03-08T04:32:53;30.17;;;17.77;;
19221;SDS011;9745;50.828;4.378;2024-03-08T04:35:19;29.80;;;18.37;;
19221;SDS011;9745;50.828;4.378;2024-03-08T04:37:45;30.23;;;18.13;;
19221;SDS011;9745;50.828;4.378;2024-03-08T04:40:11;32.73;;;18.07;;
19221;SDS011;9745;50.828;4.378;2024-03-08T04:42:38;30.93;;;18.90;;
19221;SDS011;9745;50.828;4.378;2024-03-08T04:45:05;34.17;;;20.07;;
19221;SDS011;9745;50.828;4.378;2024-03-08T04:47:33;31.60;;;20.67;;
19221;SDS011;9745;50.828;4.378;2024-03-08T04:50:01;30.47;;;18.13;;
19221;SDS011;9745;50.828;4.378;2024-03-08T04:52:27;29.63;;;18.40;;
19221;SDS011;9745;50.828;4.378;2024-03-08T04:54:53;31.60;;;18.23;;
19221;SDS011;9745;50.828;4.378;2024-03-08T04:57:19;33.00;;;19.30;;
19221;SDS011;9745;50.828;4.378;2024-03-08T04:59:45;30.30;;;19.23;;
19221;SDS011;9745;50.828;4.378;2024-03-08T05:02:11;32.00;;;19.80;;
19221;SDS011;9745;50.828;4.378;2024-03-08T05:04:37;32.00;;;18.73;;
19221;SDS011;9745;50.828;4.378;2024-03-08T05:07:03;33.43;;;19.13;;
19221;SDS011;9745;50.828;4.378;2024-03-08T05:09:29;37.67;;;19.47;;
19221;SDS011;9745;50.828;4.378;2024-03-08T05:11:56;31.63;;;18.37;;
19221;SDS011;9745;50.828;4.378;2024-03-08T05:14:24;31.10;;;18.40;;
19221;SDS011;9745;50.828;4.378;2024-03-08T05:16:50;28.80;;;18.13;;
19221;SDS011;9745;50.828;4.378;2024-03-08T05:19:17;30.87;;;18.40;;
19221;SDS011;9745;50.828;4.378;2024-03-08T05:21:43;31.77;;;18.97;;
19221;SDS011;9745;50.828;4.378;2024-03-08T05:24:10;33.13;;;19.20;;
19221;SDS011;9745;50.828;4.378;2024-03-08T05:26:36;28.80;;;18.77;;
19221;SDS011;9745;50.828;4.378;2024-03-08T05:29:05;29.70;;;18.47;;
19221;SDS011;9745;50.828;4.378;2024-03-08T05:31:38;30.53;;;19.27;;
19221;SDS011;9745;50.828;4.378;2024-03-08T05:34:07;32.50;;;18.83;;
19221;SDS011;9745;50.828;4.378;2024-03-08T05:36:35;31.63;;;18.93;;
19221;SDS011;9745;50.828;4.378;2024-03-08T05:39:01;33.57;;;18.87;;
19221;SDS011;9745;50.828;4.378;2024-03-08T05:41:27;30.20;;;17.47;;
19221;SDS011;9745;50.828;4.378;2024-03-08T05:43:53;33.40;;;18.63;;
19221;SDS011;9745;50.828;4.378;2024-03-08T05:46:19;27.73;;;17.33;;
19221;SDS011;9745;50.828;4.378;2024-03-08T05:48:45;32.60;;;19.17;;
19221;SDS011;9745;50.828;4.378;2024-03-08T05:51:11;31.10;;;17.73;;
19221;SDS011;9745;50.828;4.378;2024-03-08T05:53:37;30.60;;;18.83;;
19221;SDS011;9745;50.828;4.378;2024-03-08T05:56:03;33.63;;;18.37;;
19221;SDS011;9745;50.828;4.378;2024-03-08T05:58:29;29.63;;;17.37;;
19221;SDS011;9745;50.828;4.378;2024-03-08T06:00:56;31.53;;;18.73;;
19221;SDS011;9745;50.828;4.378;2024-03-08T06:03:22;35.27;;;18.53;;
19221;SDS011;9745;50.828;4.378;2024-03-08T06:05:48;32.87;;;18.67;;
19221;SDS011;9745;50.828;4.378;2024-03-08T06:08:15;31.37;;;18.20;;
19221;SDS011;9745;50.828;4.378;2024-03-08T06:10:41;36.17;;;19.37;;
19221;SDS011;9745;50.828;4.378;2024-03-08T06:13:07;29.90;;;17.37;;
19221;SDS011;9745;50.828;4.378;2024-03-08T06:15:33;36.20;;;17.97;;
19221;SDS011;9745;50.828;4.378;2024-03-08T06:17:59;30.23;;;17.57;;
19221;SDS011;9745;50.828;4.378;2024-03-08T06:20:26;35.37;;;19.13;;
19221;SDS011;9745;50.828;4.378;2024-03-08T06:22:52;32.90;;;18.70;;
19221;SDS011;9745;50.828;4.378;2024-03-08T06:25:18;34.33;;;19.00;;
19221;SDS011;9745;50.828;4.378;2024-03-08T06:27:46;30.07;;;18.17;;
19221;SDS011;9745;50.828;4.378;2024-03-08T06:30:12;29.73;;;17.17;;
19221;SDS011;9745;50.828;4.378;2024-03-08T06:32:38;32.33;;;19.43;;
19221;SDS011;9745;50.828;4.378;2024-03-08T06:35:04;30.27;;;18.10;;
19221;SDS011;9745;50.828;4.378;2024-03-08T06:37:35;34.27;;;18.80;;
19221;SDS011;9745;50.828;4.378;2024-03-08T06:40:01;34.00;;;19.10;;
19221;SDS011;9745;50.828;4.378;2024-03-08T06:42:28;29.17;;;18.20;;
19221;SDS011;9745;50.828;4.378;2024-03-08T06:44:57;31.90;;;19.47;;
19221;SDS011;9745;50.828;4.378;2024-03-08T06:47:29;35.23;;;19.87;;
19221;SDS011;9745;50.828;4.378;2024-03-08T06:49:55;27.10;;;17.23;;
19221;SDS011;9745;50.828;4.378;2024-03-08T06:52:21;31.83;;;17.90;;
19221;SDS011;9745;50.828;4.378;2024-03-08T06:54:47;30.13;;;17.43;;
19221;SDS011;9745;50.828;4.378;2024-03-08T06:57:14;32.83;;;17.13;;
19221;SDS011;9745;50.828;4.378;2024-03-08T06:59:41;33.77;;;18.07;;
19221;SDS011;9745;50.828;4.378;2024-03-08T07:02:07;33.30;;;18.10;;
19221;SDS011;9745;50.828;4.378;2024-03-08T07:04:34;28.50;;;16.90;;
19221;SDS011;9745;50.828;4.378;2024-03-08T07:07:03;32.67;;;17.50;;
19221;SDS011;9745;50.828;4.378;2024-03-08T07:09:29;31.90;;;18.03;;
19221;SDS011;9745;50.828;4.378;2024-03-08T07:11:55;30.53;;;17.70;;
19221;SDS011;9745;50.828;4.378;2024-03-08T07:14:24;28.60;;;17.80;;
19221;SDS011;9745;50.828;4.378;2024-03-08T07:16:50;32.97;;;18.47;;
19221;SDS011;9745;50.828;4.378;2024-03-08T07:19:16;30.17;;;17.60;;
19221;SDS011;9745;50.828;4.378;2024-03-08T07:21:46;34.40;;;17.87;;
19221;SDS011;9745;50.828;4.378;2024-03-08T07:24:12;32.60;;;18.60;;
19221;SDS011;9745;50.828;4.378;2024-03-08T07:26:41;40.07;;;19.43;;
19221;SDS011;9745;50.828;4.378;2024-03-08T07:29:08;32.60;;;19.13;;
19221;SDS011;9745;50.828;4.378;2024-03-08T07:31:34;30.27;;;17.07;;
19221;SDS011;9745;50.828;4.378;2024-03-08T07:34:10;32.73;;;17.23;;
19221;SDS011;9745;50.828;4.378;2024-03-08T07:36:37;30.27;;;18.03;;
19221;SDS011;9745;50.828;4.378;2024-03-08T07:39:03;29.47;;;18.23;;
19221;SDS011;9745;50.828;4.378;2024-03-08T07:41:34;31.60;;;17.63;;
19221;SDS011;9745;50.828;4.378;2024-03-08T07:44:01;30.67;;;17.23;;
19221;SDS011;9745;50.828;4.378;2024-03-08T07:46:28;33.63;;;17.80;;
19221;SDS011;9745;50.828;4.378;2024-03-08T07:48:54;29.47;;;17.03;;
19221;SDS011;9745;50.828;4.378;2024-03-08T07:51:20;29.17;;;17.27;;
19221;SDS011;9745;50.828;4.378;2024-03-08T07:53:46;29.47;;;17.27;;
19221;SDS011;9745;50.828;4.378;2024-03-08T07:56:12;29.93;;;16.93;;
19221;SDS011;9745;50.828;4.378;2024-03-08T07:58:40;31.87;;;16.93;;
19221;SDS011;9745;50.828;4.378;2024-03-08T08:01:06;30.27;;;16.33;;
19221;SDS011;9745;50.828;4.378;2024-03-08T08:03:32;31.33;;;16.37;;
19221;SDS011;9745;50.828;4.378;2024-03-08T08:05:58;31.73;;;16.00;;
19221;SDS011;9745;50.828;4.378;2024-03-08T08:08:24;27.23;;;16.73;;
19221;SDS011;9745;50.828;4.378;2024-03-08T08:10:51;27.30;;;15.40;;
19221;SDS011;9745;50.828;4.378;2024-03-08T08:13:17;27.63;;;15.47;;
19221;SDS011;9745;50.828;4.378;2024-03-08T08:15:43;28.87;;;16.67;;
19221;SDS011;9745;50.828;4.378;2024-03-08T08:18:10;26.13;;;15.67;;
19221;SDS011;9745;50.828;4.378;2024-03-08T08:20:36;24.97;;;16.07;;
19221;SDS011;9745;50.828;4.378;2024-03-08T08:23:02;29.60;;;17.70;;
19221;SDS011;9745;50.828;4.378;2024-03-08T08:25:28;27.33;;;15.70;;
19221;SDS011;9745;50.828;4.378;2024-03-08T08:27:54;37.67;;;17.37;;
19221;SDS011;9745;50.828;4.378;2024-03-08T08:30:20;26.73;;;15.87;;
19221;SDS011;9745;50.828;4.378;2024-03-08T08:32:47;28.20;;;17.30;;
19221;SDS011;9745;50.828;4.378;2024-03-08T08:35:13;29.37;;;14.93;;
19221;SDS011;9745;50.828;4.378;2024-03-08T08:37:39;28.50;;;16.37;;
19221;SDS011;9745;50.828;4.378;2024-03-08T08:40:06;24.73;;;15.67;;
19221;SDS011;9745;50.828;4.378;2024-03-08T08:42:39;26.50;;;15.53;;
19221;SDS011;9745;50.828;4.378;2024-03-08T08:45:06;25.43;;;14.87;;
19221;SDS011;9745;50.828;4.378;2024-03-08T08:47:35;26.03;;;15.10;;
19221;SDS011;9745;50.828;4.378;2024-03-08T08:50:02;27.07;;;15.60;;
19221;SDS011;9745;50.828;4.378;2024-03-08T08:52:29;26.83;;;16.37;;
19221;SDS011;9745;50.828;4.378;2024-03-08T08:54:55;25.23;;;14.83;;
19221;SDS011;9745;50.828;4.378;2024-03-08T08:57:21;26.67;;;15.67;;
19221;SDS011;9745;50.828;4.378;2024-03-08T08:59:47;30.80;;;16.20;;
19221;SDS011;9745;50.828;4.378;2024-03-08T09:02:13;25.67;;;14.90;;
19221;SDS011;9745;50.828;4.378;2024-03-08T09:04:41;28.07;;;16.17;;
19221;SDS011;9745;50.828;4.378;2024-03-08T09:07:07;28.20;;;15.50;;
19221;SDS011;9745;50.828;4.378;2024-03-08T09:09:33;27.73;;;15.00;;
19221;SDS011;9745;50.828;4.378;2024-03-08T09:11:59;28.13;;;16.27;;
19221;SDS011;9745;50.828;4.378;2024-03-08T09:14:26;24.63;;;15.13;;
19221;SDS011;9745;50.828;4.378;2024-03-08T09:16:52;26.20;;;14.90;;
19221;SDS011;9745;50.828;4.378;2024-03-08T09:19:18;25.70;;;15.37;;
19221;SDS011;9745;50.828;4.378;2024-03-08T09:21:44;23.63;;;14.63;;
19221;SDS011;9745;50.828;4.378;2024-03-08T09:24:10;26.23;;;15.07;;
19221;SDS011;9745;50.828;4.378;2024-03-08T09:26:37;22.03;;;13.97;;
19221;SDS011;9745;50.828;4.378;2024-03-08T09:29:05;27.63;;;14.63;;
19221;SDS011;9745;50.828;4.378;2024-03-08T09:31:32;25.93;;;14.70;;
19221;SDS011;9745;50.828;4.378;2024-03-08T09:33:59;23.57;;;15.07;;
19221;SDS011;9745;50.828;4.378;2024-03-08T09:36:25;21.57;;;13.43;;
19221;SDS011;9745;50.828;4.378;2024-03-08T09:38:51;22.00;;;13.20;;
19221;SDS011;9745;50.828;4.378;2024-03-08T09:41:17;21.90;;;14.43;;
19221;SDS011;9745;50.828;4.378;2024-03-08T09:43:44;28.83;;;14.90;;
19221;SDS011;9745;50.828;4.378;2024-03-08T09:46:11;24.97;;;14.43;;
19221;SDS011;9745;50.828;4.378;2024-03-08T09:48:39;24.73;;;13.87;;
19221;SDS011;9745;50.828;4.378;2024-03-08T09:51:06;23.00;;;13.87;;
19221;SDS011;9745;50.828;4.378;2024-03-08T09:53:33;22.37;;;13.10;;
19221;SDS011;9745;50.828;4.378;2024-03-08T09:55:59;21.93;;;13.47;;
19221;SDS011;9745;50.828;4.378;2024-03-08T09:58:25;23.70;;;14.00;;
19221;SDS011;9745;50.828;4.378;2024-03-08T10:01:00;27.43;;;13.83;;
19221;SDS011;9745;50.828;4.378;2024-03-08T10:03:32;25.37;;;14.60;;
19221;SDS011;9745;50.828;4.378;2024-03-08T10:06:00;27.87;;;12.87;;
19221;SDS011;9745;50.828;4.378;2024-03-08T10:08:29;23.20;;;13.23;;
19221;SDS011;9745;50.828;4.378;2024-03-08T10:10:58;23.43;;;13.30;;
19221;SDS011;9745;50.828;4.378;2024-03-08T10:13:24;25.20;;;13.83;;
19221;SDS011;9745;50.828;4.378;2024-03-08T10:15:53;20.90;;;12.70;;
19221;SDS011;9745;50.828;4.378;2024-03-08T10:18:20;24.47;;;14.13;;
19221;SDS011;9745;50.828;4.378;2024-03-08T10:21:01;24.37;;;13.00;;
19221;SDS011;9745;50.828;4.378;2024-03-08T10:23:29;20.73;;;13.20;;
19221;SDS011;9745;50.828;4.378;2024-03-08T10:25:55;26.00;;;14.63;;
19221;SDS011;9745;50.828;4.378;2024-03-08T10:28:23;27.87;;;14.20;;
19221;SDS011;9745;50.828;4.378;2024-03-08T10:30:50;24.93;;;13.13;;
19221;SDS011;9745;50.828;4.378;2024-03-08T10:33:18;21.70;;;13.43;;
19221;SDS011;9745;50.828;4.378;2024-03-08T10:35:44;22.13;;;13.37;;
19221;SDS011;9745;50.828;4.378;2024-03-08T10:38:10;23.60;;;14.43;;
19221;SDS011;9745;50.828;4.378;2024-03-08T10:40:38;24.30;;;14.23;;
19221;SDS011;9745;50.828;4.378;2024-03-08T10:43:05;23.10;;;13.20;;
19221;SDS011;9745;50.828;4.378;2024-03-08T10:45:39;23.73;;;13.83;;
19221;SDS011;9745;50.828;4.378;2024-03-08T10:50:47;24.30;;;14.13;;
19221;SDS011;9745;50.828;4.378;2024-03-08T10:53:15;26.20;;;14.53;;
19221;SDS011;9745;50.828;4.378;2024-03-08T10:55:42;26.53;;;13.80;;
19221;SDS011;9745;50.828;4.378;2024-03-08T10:58:09;20.27;;;12.90;;
19221;SDS011;9745;50.828;4.378;2024-03-08T11:00:36;21.33;;;12.43;;
19221;SDS011;9745;50.828;4.378;2024-03-08T11:03:02;20.60;;;12.83;;
19221;SDS011;9745;50.828;4.378;2024-03-08T11:05:38;23.47;;;13.90;;
19221;SDS011;9745;50.828;4.378;2024-03-08T11:08:17;21.53;;;13.90;;
19221;SDS011;9745;50.828;4.378;2024-03-08T11:10:47;22.70;;;12.80;;
19221;SDS011;9745;50.828;4.378;2024-03-08T11:16:01;22.20;;;13.57;;
19221;SDS011;9745;50.828;4.378;2024-03-08T11:18:32;22.03;;;13.03;;
19221;SDS011;9745;50.828;4.378;2024-03-08T11:21:01;20.57;;;12.03;;
19221;SDS011;9745;50.828;4.378;2024-03-08T11:23:30;19.20;;;12.77;;
19221;SDS011;9745;50.828;4.378;2024-03-08T11:25:56;23.00;;;13.37;;
19221;SDS011;9745;50.828;4.378;2024-03-08T11:28:23;19.97;;;12.57;;
19221;SDS011;9745;50.828;4.378;2024-03-08T11:33:24;20.33;;;12.57;;
19221;SDS011;9745;50.828;4.378;2024-03-08T11:35:50;21.40;;;13.10;;
19221;SDS011;9745;50.828;4.378;2024-03-08T11:38:16;22.67;;;13.37;;
19221;SDS011;9745;50.828;4.378;2024-03-08T11:40:45;20.97;;;12.80;;
19221;SDS011;9745;50.828;4.378;2024-03-08T11:43:15;22.27;;;12.53;;
19221;SDS011;9745;50.828;4.378;2024-03-08T11:45:41;19.53;;;13.27;;
19221;SDS011;9745;50.828;4.378;2024-03-08T11:48:07;20.30;;;13.83;;
19221;SDS011;9745;50.828;4.378;2024-03-08T11:50:33;22.37;;;12.93;;
19221;SDS011;9745;50.828;4.378;2024-03-08T11:53:03;21.03;;;12.33;;
19221;SDS011;9745;50.828;4.378;2024-03-08T11:55:29;27.33;;;12.57;;
19221;SDS011;9745;50.828;4.378;2024-03-08T11:58:00;60.07;;;14.30;;
19221;SDS011;9745;50.828;4.378;2024-03-08T12:00:26;18.53;;;11.57;;
19221;SDS011;9745;50.828;4.378;2024-03-08T12:03:05;21.43;;;13.23;;
19221;SDS011;9745;50.828;4.378;2024-03-08T12:05:32;21.17;;;12.17;;
19221;SDS011;9745;50.828;4.378;2024-03-08T12:07:58;20.40;;;12.00;;
19221;SDS011;9745;50.828;4.378;2024-03-08T12:10:24;19.37;;;11.97;;
19221;SDS011;9745;50.828;4.378;2024-03-08T12:12:51;18.60;;;11.63;;
19221;SDS011;9745;50.828;4.378;2024-03-08T12:15:18;21.07;;;12.23;;
19221;SDS011;9745;50.828;4.378;2024-03-08T12:17:46;27.47;;;13.47;;
19221;SDS011;9745;50.828;4.378;2024-03-08T12:20:23;25.27;;;12.60;;
19221;SDS011;9745;50.828;4.378;2024-03-08T12:22:54;19.23;;;12.47;;
19221;SDS011;9745;50.828;4.378;2024-03-08T12:25:27;21.00;;;12.27;;
19221;SDS011;9745;50.828;4.378;2024-03-08T12:27:53;22.47;;;12.30;;
19221;SDS011;9745;50.828;4.378;2024-03-08T12:30:21;21.53;;;12.33;;
19221;SDS011;9745;50.828;4.378;2024-03-08T12:32:58;20.10;;;11.77;;
19221;SDS011;9745;50.828;4.378;2024-03-08T12:35:25;17.83;;;11.83;;
19221;SDS011;9745;50.828;4.378;2024-03-08T12:37:55;16.10;;;11.40;;
19221;SDS011;9745;50.828;4.378;2024-03-08T12:40:25;19.03;;;11.50;;
19221;SDS011;9745;50.828;4.378;2024-03-08T12:42:52;19.77;;;11.93;;
19221;SDS011;9745;50.828;4.378;2024-03-08T12:45:18;22.73;;;12.13;;
19221;SDS011;9745;50.828;4.378;2024-03-08T12:47:47;19.87;;;11.47;;
19221;SDS011;9745;50.828;4.378;2024-03-08T12:50:13;18.67;;;11.50;;
19221;SDS011;9745;50.828;4.378;2024-03-08T12:52:41;17.27;;;11.37;;
19221;SDS011;9745;50.828;4.378;2024-03-08T12:55:07;17.67;;;11.03;;
19221;SDS011;9745;50.828;4.378;2024-03-08T12:57:34;18.17;;;11.53;;
19221;SDS011;9745;50.828;4.378;2024-03-08T13:00:01;21.20;;;12.47;;
19221;SDS011;9745;50.828;4.378;2024-03-08T13:02:28;18.00;;;12.07;;
19221;SDS011;9745;50.828;4.378;2024-03-08T13:04:55;17.30;;;11.50;;
19221;SDS011;9745;50.828;4.378;2024-03-08T13:07:25;22.33;;;12.03;;
19221;SDS011;9745;50.828;4.378;2024-03-08T13:09:52;20.23;;;11.73;;
19221;SDS011;9745;50.828;4.378;2024-03-08T13:12:19;21.33;;;12.63;;
19221;SDS011;9745;50.828;4.378;2024-03-08T13:14:45;24.27;;;12.17;;
19221;SDS011;9745;50.828;4.378;2024-03-08T13:17:12;20.93;;;12.30;;
19221;SDS011;9745;50.828;4.378;2024-03-08T13:19:38;19.93;;;11.77;;
19221;SDS011;9745;50.828;4.378;2024-03-08T13:22:04;19.57;;;11.50;;
19221;SDS011;9745;50.828;4.378;2024-03-08T13:24:30;19.03;;;11.60;;
19221;SDS011;9745;50.828;4.378;2024-03-08T13:26:56;17.40;;;11.17;;
19221;SDS011;9745;50.828;4.378;2024-03-08T13:29:24;17.47;;;11.60;;
19221;SDS011;9745;50.828;4.378;2024-03-08T13:31:50;21.33;;;12.20;;
19221;SDS011;9745;50.828;4.378;2024-03-08T13:34:18;18.63;;;12.13;;
19221;SDS011;9745;50.828;4.378;2024-03-08T13:36:52;23.57;;;12.33;;
19221;SDS011;9745;50.828;4.378;2024-03-08T13:39:19;18.10;;;11.63;;
19221;SDS011;9745;50.828;4.378;2024-03-08T13:41:46;18.33;;;11.73;;
19221;SDS011;9745;50.828;4.378;2024-03-08T13:44:12;17.80;;;11.60;;
19221;SDS011;9745;50.828;4.378;2024-03-08T13:46:38;21.17;;;13.13;;
19221;SDS011;9745;50.828;4.378;2024-03-08T13:49:05;20.43;;;11.80;;
19221;SDS011;9745;50.828;4.378;2024-03-08T13:51:33;21.17;;;12.57;;
19221;SDS011;9745;50.828;4.378;2024-03-08T13:53:59;19.13;;;11.23;;
19221;SDS011;9745;50.828;4.378;2024-03-08T13:56:25;16.27;;;11.60;;
19221;SDS011;9745;50.828;4.378;2024-03-08T13:58:51;20.57;;;11.33;;
19221;SDS011;9745;50.828;4.378;2024-03-08T14:01:21;21.60;;;11.57;;
19221;SDS011;9745;50.828;4.378;2024-03-08T14:03:47;17.60;;;11.10;;
19221;SDS011;9745;50.828;4.378;2024-03-08T14:06:13;20.57;;;10.50;;
19221;SDS011;9745;50.828;4.378;2024-03-08T14:08:39;17.77;;;10.93;;
19221;SDS011;9745;50.828;4.378;2024-03-08T14:11:05;19.33;;;11.87;;
19221;SDS011;9745;50.828;4.378;2024-03-08T14:13:40;17.20;;;11.83;;
19221;SDS011;9745;50.828;4.378;2024-03-08T14:16:10;16.43;;;11.27;;
19221;SDS011;9745;50.828;4.378;2024-03-08T14:18:36;22.00;;;10.80;;
19221;SDS011;9745;50.828;4.378;2024-03-08T14:21:02;20.10;;;11.90;;
19221;SDS011;9745;50.828;4.378;2024-03-08T14:23:29;16.27;;;11.10;;
19221;SDS011;9745;50.828;4.378;2024-03-08T14:25:55;19.07;;;11.23;;
19221;SDS011;9745;50.828;4.378;2024-03-08T14:28:21;17.67;;;10.70;;
19221;SDS011;9745;50.828;4.378;2024-03-08T14:30:48;17.77;;;10.70;;
19221;SDS011;9745;50.828;4.378;2024-03-08T14:33:14;16.33;;;10.73;;
19221;SDS011;9745;50.828;4.378;2024-03-08T14:35:41;16.53;;;11.10;;
19221;SDS011;9745;50.828;4.378;2024-03-08T14:38:12;18.70;;;10.70;;
19221;SDS011;9745;50.828;4.378;2024-03-08T14:40:38;17.53;;;10.57;;